createdAt,value
2023-03-21T00:01:53.911Z,9.05
2023-03-21T00:04:28.336Z,6.55
2023-03-21T00:06:58.129Z,9.13
2023-03-21T00:09:24.971Z,7.38
2023-03-21T00:11:51.722Z,10.27
2023-03-21T00:14:19.964Z,7.70
2023-03-21T00:16:51.089Z,8.02
2023-03-21T00:19:20.782Z,7.90
2023-03-21T00:22:05.420Z,9.45
2023-03-21T00:24:32.990Z,8.13
2023-03-21T00:27:12.532Z,8.18
2023-03-21T00:29:49.261Z,8.55
2023-03-21T00:32:16.948Z,8.25
2023-03-21T00:34:58.825Z,8.43
2023-03-21T00:37:31.331Z,7.82
2023-03-21T00:39:58.129Z,6.38
2023-03-21T00:42:25.017Z,9.73
2023-03-21T00:44:51.866Z,7.68
2023-03-21T00:47:18.716Z,7.53
2023-03-21T00:49:45.868Z,9.30
2023-03-21T00:52:18.692Z,7.85
2023-03-21T00:54:51.606Z,10.73
2023-03-21T00:57:20.218Z,7.00
2023-03-21T00:59:48.812Z,7.45
2023-03-21T01:02:22.726Z,6.93
2023-03-21T01:04:50.448Z,8.77
2023-03-21T01:07:17.161Z,7.10
2023-03-21T01:09:43.882Z,7.68
2023-03-21T01:12:10.997Z,7.47
2023-03-21T01:14:38.478Z,7.25
2023-03-21T01:17:06.126Z,6.32
2023-03-21T01:19:48.741Z,6.70
2023-03-21T01:22:17.260Z,5.35
2023-03-21T01:24:53.854Z,7.32
2023-03-21T01:27:23.745Z,7.45
2023-03-21T01:29:50.647Z,9.82
2023-03-21T01:32:17.498Z,7.60
2023-03-21T01:34:44.193Z,6.30
2023-03-21T01:37:10.916Z,6.25
2023-03-21T01:39:37.703Z,6.20
2023-03-21T01:42:04.537Z,9.15
2023-03-21T01:44:31.635Z,9.25
2023-03-21T01:47:10.617Z,6.75
2023-03-21T01:49:46.139Z,8.23
2023-03-21T01:52:35.372Z,6.43
2023-03-21T01:55:06.902Z,7.82
2023-03-21T01:58:04.897Z,8.25
2023-03-21T02:00:33.752Z,13.27
2023-03-21T02:03:13.809Z,9.77
2023-03-21T02:06:02.468Z,7.35
2023-03-21T02:08:39.134Z,8.45
2023-03-21T02:11:08.082Z,6.60
2023-03-21T02:13:36.269Z,6.38
2023-03-21T02:16:24.534Z,5.78
2023-03-21T02:19:35.647Z,7.03
2023-03-21T02:22:12.039Z,6.88
2023-03-21T02:25:13.353Z,7.32
2023-03-21T02:28:33.782Z,8.73
2023-03-21T02:31:22.601Z,7.25
2023-03-21T02:34:27.314Z,6.28
2023-03-21T02:37:16.060Z,9.23
2023-03-21T02:39:59.537Z,10.02
2023-03-21T02:42:36.191Z,7.10
2023-03-21T02:45:16.096Z,6.82
2023-03-21T02:47:52.707Z,11.48
2023-03-21T02:50:37.400Z,10.32
2023-03-21T02:53:07.257Z,6.30
2023-03-21T02:55:35.888Z,10.10
2023-03-21T02:58:12.907Z,8.23
2023-03-21T03:00:42.819Z,8.73
2023-03-21T03:03:12.727Z,10.50
2023-03-21T03:05:55.827Z,7.45
2023-03-21T03:09:02.146Z,7.40
2023-03-21T03:11:34.320Z,5.72
2023-03-21T03:14:40.042Z,6.40
2023-03-21T03:17:21.666Z,8.60
2023-03-21T03:20:04.268Z,6.88
2023-03-21T03:23:05.666Z,5.78
2023-03-21T03:25:43.755Z,6.93
2023-03-21T03:28:13.067Z,6.40
2023-03-21T03:30:48.878Z,5.90
2023-03-21T03:33:23.639Z,10.05
2023-03-21T03:36:04.445Z,7.78
2023-03-21T03:38:35.734Z,9.57
2023-03-21T03:41:10.310Z,6.55
2023-03-21T03:43:50.823Z,7.75
2023-03-21T03:46:25.149Z,9.07
2023-03-21T03:49:02.551Z,9.77
2023-03-21T03:51:36.236Z,9.52
2023-03-21T03:54:28.245Z,11.20
2023-03-21T03:56:55.538Z,7.95
2023-03-21T03:59:22.392Z,8.95
2023-03-21T04:01:49.279Z,10.38
2023-03-21T04:04:17.049Z,7.40
2023-03-21T04:06:51.552Z,8.02
2023-03-21T04:09:22.177Z,7.50
2023-03-21T04:14:18.817Z,8.07
2023-03-21T04:16:45.612Z,8.40
2023-03-21T04:19:12.504Z,10.80
2023-03-21T04:21:39.550Z,8.13
2023-03-21T04:24:07.418Z,8.85
2023-03-21T04:26:35.874Z,7.95
2023-03-21T04:29:03.365Z,7.28
2023-03-21T04:31:31.335Z,8.15
2023-03-21T04:33:59.545Z,7.63
2023-03-21T04:36:39.067Z,7.28
2023-03-21T04:39:12.210Z,8.10
2023-03-21T04:41:44.075Z,8.00
2023-03-21T04:44:12.516Z,10.55
2023-03-21T04:46:40.039Z,9.88
2023-03-21T04:49:07.712Z,8.82
2023-03-21T04:51:35.754Z,10.63
2023-03-21T04:54:02.887Z,8.00
2023-03-21T04:56:34.012Z,8.68
2023-03-21T04:59:05.680Z,9.60
2023-03-21T05:01:32.809Z,11.48
2023-03-21T05:04:04.436Z,11.75
2023-03-21T05:06:32.027Z,11.98
2023-03-21T05:09:00.367Z,11.43
2023-03-21T05:11:32.366Z,13.32
2023-03-21T05:13:59.482Z,8.98
2023-03-21T05:16:30.512Z,12.52
2023-03-21T05:18:59.204Z,8.63
2023-03-21T05:21:29.451Z,9.30
2023-03-21T05:23:58.327Z,9.00
2023-03-21T05:26:25.158Z,9.82
2023-03-21T05:28:51.871Z,9.60
2023-03-21T05:31:19.173Z,7.80
2023-03-21T05:33:47.203Z,7.85
2023-03-21T05:36:15.624Z,9.65
2023-03-21T05:38:48.472Z,8.50
2023-03-21T05:41:18.167Z,27.15
2023-03-21T05:43:45.944Z,45.50
2023-03-21T05:46:13.443Z,67.15
2023-03-21T05:48:40.196Z,66.93
2023-03-21T05:51:06.999Z,62.92
2023-03-21T05:53:33.803Z,23.00
2023-03-21T05:56:00.663Z,10.63
2023-03-21T05:58:27.459Z,8.73
2023-03-21T06:00:54.563Z,19.10
2023-03-21T06:03:21.324Z,20.92
2023-03-21T06:05:48.233Z,15.02
2023-03-21T06:08:15.325Z,10.30
2023-03-21T06:10:42.143Z,7.70
2023-03-21T06:13:08.939Z,8.52
2023-03-21T06:15:36.173Z,7.95
2023-03-21T06:18:03.129Z,11.82
2023-03-21T06:20:29.921Z,9.75
2023-03-21T06:22:56.728Z,10.68
2023-03-21T06:25:23.481Z,10.85
2023-03-21T06:27:50.237Z,13.63
2023-03-21T06:30:18.110Z,12.88
2023-03-21T06:32:44.838Z,11.55
2023-03-21T06:35:11.630Z,13.63
2023-03-21T06:37:38.406Z,14.05
2023-03-21T06:40:06.085Z,12.88
2023-03-21T06:42:32.884Z,10.05
2023-03-21T06:44:59.637Z,11.75
2023-03-21T06:47:26.357Z,11.15
2023-03-21T06:49:53.119Z,10.95
2023-03-21T06:52:20.062Z,9.75
2023-03-21T06:54:46.788Z,9.85
2023-03-21T06:57:13.845Z,9.27
2023-03-21T06:59:41.903Z,9.77
2023-03-21T07:02:11.174Z,9.27
2023-03-21T07:04:37.986Z,11.07
2023-03-21T07:07:04.824Z,9.40
2023-03-21T07:09:31.599Z,9.75
2023-03-21T07:11:58.427Z,8.65
2023-03-21T07:14:25.598Z,10.52
2023-03-21T07:16:52.426Z,11.65
2023-03-21T07:19:19.196Z,9.10
2023-03-21T07:21:46.464Z,8.98
2023-03-21T07:24:13.169Z,8.05
2023-03-21T07:26:39.909Z,9.13
2023-03-21T07:29:06.685Z,10.30
2023-03-21T07:31:33.533Z,9.30
2023-03-21T07:34:00.527Z,9.57
2023-03-21T07:36:28.080Z,7.55
2023-03-21T07:38:54.844Z,8.80
2023-03-21T07:41:21.634Z,7.65
2023-03-21T07:43:48.427Z,10.30
2023-03-21T07:46:15.746Z,7.53
2023-03-21T07:48:42.496Z,10.35
2023-03-21T07:51:09.596Z,9.75
2023-03-21T07:53:36.334Z,7.93
2023-03-21T07:56:04.009Z,10.32
2023-03-21T07:58:30.720Z,9.20
2023-03-21T08:00:58.722Z,9.57
2023-03-21T08:03:29.114Z,9.20
2023-03-21T08:05:55.979Z,10.63
2023-03-21T08:08:22.834Z,10.80
2023-03-21T08:10:49.849Z,7.35
2023-03-21T08:13:16.625Z,9.05
2023-03-21T08:15:43.664Z,8.43
2023-03-21T08:18:11.395Z,9.57
2023-03-21T08:20:38.728Z,8.48
2023-03-21T08:23:05.440Z,10.02
2023-03-21T08:25:33.072Z,11.18
2023-03-21T08:27:59.886Z,10.20
2023-03-21T08:30:28.382Z,7.20
2023-03-21T08:33:01.889Z,7.40
2023-03-21T08:35:30.406Z,8.68
2023-03-21T08:37:57.628Z,6.82
2023-03-21T08:40:24.622Z,7.88
2023-03-21T08:42:51.352Z,6.93
2023-03-21T08:45:18.534Z,7.97
2023-03-21T08:47:46.550Z,7.65
2023-03-21T08:50:16.808Z,7.18
2023-03-21T08:52:43.931Z,8.15
2023-03-21T08:55:11.813Z,8.38
2023-03-21T08:57:38.889Z,8.05
2023-03-21T09:00:14.306Z,7.38
2023-03-21T09:02:45.517Z,9.02
2023-03-21T09:05:12.692Z,7.00
2023-03-21T09:07:41.578Z,8.07
2023-03-21T09:10:20.600Z,7.45
2023-03-21T09:12:53.276Z,6.75
2023-03-21T09:15:24.094Z,7.15
2023-03-21T09:17:53.234Z,6.13
2023-03-21T09:20:25.915Z,8.10
2023-03-21T09:22:53.336Z,9.32
2023-03-21T09:25:21.354Z,6.15
2023-03-21T09:27:48.333Z,8.35
2023-03-21T09:30:21.165Z,6.90
2023-03-21T09:32:50.537Z,6.78
2023-03-21T09:35:19.026Z,7.03
2023-03-21T09:37:48.256Z,7.20
2023-03-21T09:40:19.525Z,5.90
2023-03-21T09:42:52.341Z,4.95
2023-03-21T09:45:42.784Z,6.07
2023-03-21T09:48:25.983Z,7.80
2023-03-21T09:50:53.740Z,7.65
2023-03-21T09:53:27.047Z,6.47
2023-03-21T09:55:56.165Z,7.18
2023-03-21T09:58:36.539Z,7.13
2023-03-21T10:01:22.260Z,8.50
2023-03-21T10:03:54.388Z,5.68
2023-03-21T10:06:30.616Z,8.05
2023-03-21T10:09:06.482Z,6.78
2023-03-21T10:11:50.397Z,6.75
2023-03-21T10:14:34.659Z,5.85
2023-03-21T10:17:13.733Z,6.55
2023-03-21T10:19:41.916Z,5.70
2023-03-21T10:22:09.300Z,5.72
2023-03-21T10:24:37.125Z,7.75
2023-03-21T10:27:04.638Z,7.32
2023-03-21T10:29:44.808Z,6.05
2023-03-21T10:32:17.298Z,7.43
2023-03-21T10:34:50.918Z,6.30
2023-03-21T10:37:18.140Z,6.43
2023-03-21T10:39:49.118Z,8.02
2023-03-21T10:42:28.426Z,6.22
2023-03-21T10:44:57.750Z,5.85
2023-03-21T10:47:27.586Z,7.60
2023-03-21T10:50:10.983Z,6.22
2023-03-21T10:52:47.344Z,7.68
2023-03-21T10:55:25.471Z,7.65
2023-03-21T10:58:00.036Z,6.10
2023-03-21T11:00:33.764Z,6.75
2023-03-21T11:03:01.466Z,6.82
2023-03-21T11:05:38.506Z,7.78
2023-03-21T11:08:18.430Z,5.72
2023-03-21T11:10:59.775Z,6.85
2023-03-21T11:13:37.774Z,6.13
2023-03-21T11:16:10.954Z,7.95
2023-03-21T11:18:44.005Z,8.48
2023-03-21T11:21:14.523Z,7.40
2023-03-21T11:23:48.133Z,4.70
2023-03-21T11:26:30.870Z,4.53
2023-03-21T11:28:58.220Z,4.45
2023-03-21T11:31:39.260Z,5.70
2023-03-21T11:34:08.205Z,4.78
2023-03-21T11:36:40.778Z,3.53
2023-03-21T11:39:32.701Z,5.23
2023-03-21T11:42:01.287Z,4.25
2023-03-21T11:44:34.062Z,4.60
2023-03-21T11:47:01.859Z,6.07
2023-03-21T11:49:29.441Z,4.05
2023-03-21T11:52:08.195Z,4.47
2023-03-21T11:55:07.759Z,5.80
2023-03-21T11:58:13.848Z,6.22
2023-03-21T12:01:09.108Z,5.60
2023-03-21T12:03:54.993Z,5.28
2023-03-21T12:06:33.995Z,5.13
2023-03-21T12:09:22.898Z,3.60
2023-03-21T12:12:15.392Z,6.03
2023-03-21T12:15:14.568Z,3.20
2023-03-21T12:18:03.220Z,5.95
2023-03-21T12:20:41.894Z,4.30
2023-03-21T12:23:32.587Z,5.95
2023-03-21T12:26:24.473Z,7.13
2023-03-21T12:28:57.372Z,4.25
2023-03-21T12:31:37.578Z,4.25
2023-03-21T12:34:42.761Z,5.00
2023-03-21T12:37:30.763Z,4.93
2023-03-21T12:40:12.003Z,3.95
2023-03-21T12:42:58.227Z,3.15
2023-03-21T12:45:37.432Z,3.33
2023-03-21T12:48:33.624Z,4.88
2023-03-21T12:51:04.616Z,4.82
2023-03-21T12:54:00.998Z,4.30
2023-03-21T12:56:46.626Z,5.45
2023-03-21T12:59:36.644Z,4.82
2023-03-21T13:02:19.288Z,4.25
2023-03-21T13:05:10.709Z,6.20
2023-03-21T13:07:43.183Z,3.42
2023-03-21T13:10:16.331Z,4.78
2023-03-21T13:12:50.341Z,3.80
2023-03-21T13:15:48.134Z,3.78
2023-03-21T13:18:39.266Z,5.47
2023-03-21T13:21:16.698Z,4.97
2023-03-21T13:24:00.377Z,3.10
2023-03-21T13:26:39.189Z,3.95
2023-03-21T13:29:26.717Z,3.50
2023-03-21T13:31:57.488Z,4.25
2023-03-21T13:34:25.313Z,2.65
2023-03-21T13:36:52.951Z,4.93
2023-03-21T13:39:31.037Z,3.90
2023-03-21T13:42:05.919Z,5.13
2023-03-21T13:44:50.408Z,4.50
2023-03-21T13:47:31.662Z,3.08
2023-03-21T13:50:17.496Z,5.40
2023-03-21T13:53:04.465Z,5.05
2023-03-21T13:55:47.152Z,3.33
2023-03-21T13:58:25.022Z,4.10
2023-03-21T14:01:29.108Z,5.30
2023-03-21T14:04:13.648Z,4.95
2023-03-21T14:07:04.851Z,5.70
2023-03-21T14:09:33.600Z,4.75
2023-03-21T14:12:07.602Z,4.68
2023-03-21T14:14:41.328Z,5.30
2023-03-21T14:17:33.530Z,4.03
2023-03-21T14:20:16.267Z,5.45
2023-03-21T14:22:46.195Z,5.13
2023-03-21T14:25:15.300Z,5.82
2023-03-21T14:27:49.460Z,4.95
2023-03-21T14:30:38.259Z,6.05
2023-03-21T14:33:17.267Z,5.93
2023-03-21T14:35:46.835Z,5.93
2023-03-21T14:38:22.699Z,3.97
2023-03-21T14:40:52.979Z,6.13
2023-03-21T14:43:21.667Z,6.43
2023-03-21T14:45:54.387Z,7.57
2023-03-21T14:48:28.265Z,5.47
2023-03-21T14:50:57.223Z,4.95
2023-03-21T14:53:30.388Z,5.07
2023-03-21T14:56:18.848Z,4.65
2023-03-21T14:58:47.189Z,4.35
2023-03-21T15:01:20.570Z,6.72
2023-03-21T15:03:50.789Z,6.53
2023-03-21T15:06:17.779Z,5.85
2023-03-21T15:08:59.878Z,4.15
2023-03-21T15:11:33.057Z,4.70
2023-03-21T15:16:31.250Z,5.13
2023-03-21T15:18:59.245Z,6.53
2023-03-21T15:21:31.877Z,5.95
2023-03-21T15:24:17.756Z,6.38
2023-03-21T15:26:46.715Z,6.50
2023-03-21T15:29:16.077Z,4.50
2023-03-21T15:31:43.430Z,4.75
2023-03-21T15:34:26.168Z,7.72
2023-03-21T15:37:05.482Z,4.93
2023-03-21T15:39:35.917Z,6.38
2023-03-21T15:42:37.369Z,5.30
2023-03-21T15:45:26.911Z,6.80
2023-03-21T15:48:03.148Z,7.43
2023-03-21T15:50:39.870Z,6.57
2023-03-21T15:53:14.790Z,5.68
2023-03-21T15:55:51.950Z,5.55
2023-03-21T15:58:24.441Z,7.68
2023-03-21T16:00:56.285Z,5.43
2023-03-21T16:03:48.132Z,5.45
2023-03-21T16:06:14.932Z,6.68
2023-03-21T16:08:48.358Z,5.65
2023-03-21T16:13:53.300Z,8.15
2023-03-21T16:16:23.121Z,7.10
2023-03-21T16:18:50.496Z,5.55
2023-03-21T16:21:20.577Z,5.40
2023-03-21T16:23:48.386Z,6.47
2023-03-21T16:26:27.998Z,8.50
2023-03-21T16:28:55.445Z,6.13
2023-03-21T16:31:26.055Z,8.05
2023-03-21T16:33:53.080Z,6.65
2023-03-21T16:36:23.779Z,6.93
2023-03-21T16:38:52.717Z,7.80
2023-03-21T16:41:20.790Z,7.20
2023-03-21T16:43:47.879Z,7.15
2023-03-21T16:46:19.324Z,6.72
2023-03-21T16:48:49.563Z,5.72
2023-03-21T16:51:19.101Z,6.93
2023-03-21T16:53:46.241Z,6.88
2023-03-21T16:56:28.795Z,8.07
2023-03-21T16:58:56.886Z,7.18
2023-03-21T17:01:29.934Z,7.95
2023-03-21T17:03:58.199Z,7.50
2023-03-21T17:06:28.047Z,7.60
2023-03-21T17:08:58.038Z,9.13
2023-03-21T17:11:31.272Z,7.70
2023-03-21T17:13:58.036Z,8.95
2023-03-21T17:16:27.110Z,8.77
2023-03-21T17:18:55.151Z,8.23
2023-03-21T17:21:25.345Z,8.90
2023-03-21T17:23:53.176Z,10.02
2023-03-21T17:26:23.112Z,10.07
2023-03-21T17:28:50.585Z,12.57
2023-03-21T17:31:22.830Z,7.75
2023-03-21T17:33:49.914Z,7.70
2023-03-21T17:36:17.908Z,9.10
2023-03-21T17:38:48.584Z,10.25
2023-03-21T17:41:17.773Z,11.10
2023-03-21T17:43:45.128Z,8.35
2023-03-21T17:46:14.366Z,9.30
2023-03-21T17:48:41.993Z,7.32
2023-03-21T17:51:14.601Z,7.57
2023-03-21T17:53:50.598Z,6.77
2023-03-21T17:56:21.697Z,7.43
2023-03-21T17:58:48.866Z,7.55
2023-03-21T18:01:15.753Z,10.65
2023-03-21T18:03:42.602Z,8.98
2023-03-21T18:06:16.262Z,9.18
2023-03-21T18:08:43.674Z,11.95
2023-03-21T18:11:12.744Z,9.63
2023-03-21T18:13:41.254Z,11.70
2023-03-21T18:16:10.442Z,10.18
2023-03-21T18:18:38.025Z,15.23
2023-03-21T18:21:05.858Z,6.53
2023-03-21T18:23:33.091Z,7.45
2023-03-21T18:25:59.913Z,7.05
2023-03-21T18:28:26.743Z,8.45
2023-03-21T18:31:08.481Z,8.63
2023-03-21T18:33:40.102Z,8.20
2023-03-21T18:36:08.310Z,8.68
2023-03-21T18:38:36.475Z,7.65
2023-03-21T18:41:03.839Z,6.78
2023-03-21T18:46:17.919Z,5.22
2023-03-21T18:48:44.904Z,8.50
2023-03-21T18:51:12.270Z,6.38
2023-03-21T18:53:39.160Z,7.30
2023-03-21T18:56:10.118Z,10.38
2023-03-21T18:58:38.515Z,6.63
2023-03-21T19:01:06.310Z,8.20
2023-03-21T19:03:37.075Z,7.05
2023-03-21T19:06:05.687Z,7.78
2023-03-21T19:08:34.558Z,9.32
2023-03-21T19:11:05.918Z,8.18
2023-03-21T19:13:34.168Z,7.00
2023-03-21T19:16:02.749Z,5.63
2023-03-21T19:21:19.155Z,6.00
2023-03-21T19:26:33.213Z,5.55
2023-03-21T19:29:00.373Z,7.30
2023-03-21T19:31:27.800Z,7.82
2023-03-21T19:33:55.151Z,9.55
2023-03-21T19:36:23.380Z,8.10
2023-03-21T19:38:51.109Z,5.32
2023-03-21T19:41:20.180Z,6.43
2023-03-21T19:43:54.787Z,8.15
2023-03-21T19:46:25.481Z,7.07
2023-03-21T19:48:56.540Z,6.85
2023-03-21T19:51:29.766Z,7.53
2023-03-21T19:54:03.430Z,4.93
2023-03-21T19:56:31.609Z,5.47
2023-03-21T19:58:59.733Z,5.78
2023-03-21T20:01:27.747Z,7.07
2023-03-21T20:03:55.053Z,7.65
2023-03-21T20:06:24.993Z,7.38
2023-03-21T20:11:40.693Z,6.03
2023-03-21T20:14:07.523Z,6.40
2023-03-21T20:16:36.748Z,4.85
2023-03-21T20:19:06.163Z,8.35
2023-03-21T20:21:44.396Z,6.63
2023-03-21T20:24:16.568Z,7.28
2023-03-21T20:26:45.242Z,8.13
2023-03-21T20:30:07.060Z,8.38
2023-03-21T20:32:00.401Z,6.97
2023-03-21T20:34:28.430Z,6.50
2023-03-21T20:36:56.413Z,5.63
2023-03-21T20:39:23.630Z,10.77
2023-03-21T20:41:51.196Z,7.47
2023-03-21T20:47:06.253Z,7.18
2023-03-21T20:49:33.686Z,7.82
2023-03-21T20:54:50.460Z,8.48
2023-03-21T20:57:18.807Z,6.15
2023-03-21T20:59:47.138Z,9.23
2023-03-21T21:02:14.884Z,7.40
2023-03-21T21:05:03.601Z,6.03
2023-03-21T21:07:30.754Z,7.30
2023-03-21T21:09:58.567Z,7.53
2023-03-21T21:12:27.704Z,8.10
2023-03-21T21:14:56.311Z,9.00
2023-03-21T21:17:46.571Z,5.75
2023-03-21T21:20:16.987Z,6.75
2023-03-21T21:25:27.604Z,5.93
2023-03-21T21:27:54.415Z,7.00
2023-03-21T21:30:21.475Z,4.80
2023-03-21T21:32:49.318Z,5.28
2023-03-21T21:35:17.846Z,5.57
2023-03-21T21:37:44.973Z,6.80
2023-03-21T21:40:15.590Z,5.70
2023-03-21T21:42:44.065Z,8.65
2023-03-21T21:45:13.087Z,7.10
2023-03-21T21:47:40.476Z,6.72
2023-03-21T21:50:08.274Z,6.43
2023-03-21T21:52:35.476Z,5.75
2023-03-21T21:55:04.033Z,6.30
2023-03-21T21:57:34.123Z,8.23
2023-03-21T22:00:06.067Z,6.78
2023-03-21T22:02:33.000Z,7.78
2023-03-21T22:04:59.772Z,6.50
2023-03-21T22:07:27.404Z,9.25
2023-03-21T22:09:54.917Z,6.25
2023-03-21T22:12:21.787Z,7.13
2023-03-21T22:14:48.627Z,8.88
2023-03-21T22:17:15.372Z,5.43
2023-03-21T22:19:43.508Z,7.03
2023-03-21T22:22:11.452Z,7.72
2023-03-21T22:24:38.261Z,9.48
2023-03-21T22:27:05.294Z,7.50
2023-03-21T22:29:32.070Z,8.82
2023-03-21T22:31:58.852Z,8.57
2023-03-21T22:34:27.570Z,6.68
2023-03-21T22:36:56.925Z,7.55
2023-03-21T22:39:26.258Z,7.22
2023-03-21T22:41:54.285Z,7.88
2023-03-21T22:44:21.233Z,9.13
2023-03-21T22:46:48.009Z,7.40
2023-03-21T22:49:15.697Z,8.75
2023-03-21T22:51:43.714Z,7.20
2023-03-21T22:54:11.350Z,6.38
2023-03-21T22:56:38.140Z,7.93
2023-03-21T22:59:04.893Z,8.18
2023-03-21T23:01:31.778Z,9.77
2023-03-21T23:03:58.703Z,10.45
2023-03-21T23:06:25.503Z,10.65
2023-03-21T23:08:52.256Z,7.07
2023-03-21T23:11:19.008Z,10.75
2023-03-21T23:13:47.560Z,8.00
2023-03-21T23:16:16.765Z,6.13
2023-03-21T23:18:43.603Z,11.55
2023-03-21T23:21:13.338Z,8.32
2023-03-21T23:23:41.707Z,8.50
2023-03-21T23:26:09.513Z,6.68
2023-03-21T23:28:36.331Z,8.75
2023-03-21T23:31:18.266Z,6.35
2023-03-21T23:33:46.453Z,8.48
2023-03-21T23:36:14.437Z,9.35
2023-03-21T23:38:41.617Z,6.65
2023-03-21T23:41:09.731Z,6.40
2023-03-21T23:43:37.381Z,9.85
2023-03-21T23:46:05.333Z,7.40
2023-03-21T23:48:32.532Z,7.25
2023-03-21T23:50:59.463Z,6.13
2023-03-21T23:53:26.581Z,6.72
2023-03-21T23:55:53.722Z,7.95
2023-03-21T23:58:23.730Z,6.95
